Terminal Aerodrome Forecast
Issued by NWS Twin Cities, MN

Home | Current Version | Previous Version | Text Only | Print | Product List | Glossary On
Versions: 1 2 3 4 5 6 7 8 9 10 11 12 13 14 15 16 17 18 19 20 21 22 23 24 25 26
000
FTUS43 KMPX 251700
TAFEAU
TAF
KEAU 251721Z 2518/2618 29015G22KT P6SM SKC
     FM260000 29006KT P6SM SKC
     FM260600 VRB02KT P6SM SKC
     FM261600 15005KT P6SM SKC=

USA.gov is the U.S. government's official web portal to all federal, state and local government web resources and services.